Time;durP1;ratioP1;P1;durP2;ratioP2;P2;SDS_P1;SDS_P2;PMS_P1;PMS_P2;Temp;Humidity;BMP_temperature;BMP_pressure;BME280_temperature;BME280_humidity;BME280_pressure;Samples;Min_cycle;Max_cycle;Signal;HPM_P1;HPM_P2
2023/01/10 01:05:41;;;;;;;17.00;2.28;;;;;;;4.80;100.00;101071.44;5025075;28;20143;-79
2023/01/10 01:08:07;;;;;;;11.80;2.38;;;;;;;4.76;100.00;101070.00;5031942;28;20037;-80
2023/01/10 01:10:34;;;;;;;12.80;2.88;;;;;;;4.86;100.00;101072.75;5012998;28;20061;-80
2023/01/10 01:13:09;;;;;;;14.30;3.17;;;;;;;4.80;100.00;101086.00;5028179;28;20120;-81
2023/01/10 01:15:35;;;;;;;15.07;2.70;;;;;;;4.79;100.00;101090.34;5026366;28;20132;-79
2023/01/10 01:18:02;;;;;;;10.52;2.08;;;;;;;4.78;100.00;101096.41;5024710;28;20087;-79
2023/01/10 01:20:28;;;;;;;14.05;2.90;;;;;;;4.81;100.00;101103.06;5042638;28;20103;-80
2023/01/10 01:22:53;;;;;;;15.05;4.13;;;;;;;4.73;100.00;101107.94;5028371;28;20506;-80
2023/01/10 01:25:19;;;;;;;23.10;3.03;;;;;;;4.76;100.00;101116.25;5047114;28;20042;-80
2023/01/10 01:27:44;;;;;;;17.38;2.53;;;;;;;4.70;100.00;101126.16;5028907;28;20037;-79
2023/01/10 01:30:12;;;;;;;14.45;2.88;;;;;;;4.85;100.00;101123.28;5027857;28;20041;-80
2023/01/10 01:32:38;;;;;;;10.75;3.08;;;;;;;4.82;100.00;101135.53;5028739;28;20036;-80
2023/01/10 01:35:05;;;;;;;16.27;2.75;;;;;;;4.87;100.00;101143.75;5028677;28;20041;-80
2023/01/10 01:37:31;;;;;;;15.20;3.42;;;;;;;4.85;100.00;101143.03;5012087;28;20034;-80
2023/01/10 01:39:56;;;;;;;20.35;3.05;;;;;;;4.78;100.00;101144.41;5026151;28;20048;-80
2023/01/10 01:42:26;;;;;;;15.00;3.30;;;;;;;4.77;100.00;101150.50;5026948;28;20044;-80
2023/01/10 01:45:12;;;;;;;15.00;3.17;;;;;;;4.73;100.00;101149.88;5040437;28;20041;-80
2023/01/10 01:47:47;;;;;;;8.60;2.35;;;;;;;4.55;100.00;101154.56;5025099;28;20029;-79
2023/01/10 01:50:17;;;;;;;14.27;4.00;;;;;;;4.69;100.00;101151.03;5029771;28;20053;-80
2023/01/10 01:52:42;;;;;;;16.30;3.08;;;;;;;4.51;100.00;101165.97;5029316;28;20030;-80
2023/01/10 01:55:09;;;;;;;16.63;3.50;;;;;;;4.44;100.00;101167.34;5017412;28;20207;-80
2023/01/10 01:57:36;;;;;;;16.48;2.50;;;;;;;4.35;100.00;101171.38;5030057;28;20498;-80
2023/01/10 02:00:03;;;;;;;16.15;2.42;;;;;;;4.37;100.00;101164.38;5031807;28;20063;-80
2023/01/10 02:02:46;;;;;;;10.38;2.13;;;;;;;4.32;100.00;101179.28;5029065;28;20571;-81
2023/01/10 02:05:14;;;;;;;15.25;2.67;;;;;;;4.35;100.00;101179.09;5044687;28;20970;-80
2023/01/10 02:07:44;;;;;;;14.05;2.92;;;;;;;4.25;100.00;101176.31;5028236;28;20046;-80
2023/01/10 02:10:16;;;;;;;17.27;2.60;;;;;;;4.26;100.00;101182.28;5026486;28;20042;-80
2023/01/10 02:12:44;;;;;;;12.45;2.58;;;;;;;4.24;100.00;101173.88;5029110;28;20289;-81
2023/01/10 02:15:11;;;;;;;16.17;2.97;;;;;;;4.28;100.00;101175.28;5014771;28;20093;-81
2023/01/10 02:17:37;;;;;;;18.73;3.40;;;;;;;4.19;100.00;101187.00;5050888;23;20065;-73
2023/01/10 02:20:07;;;;;;;10.52;2.40;;;;;;;4.14;100.00;101189.06;5035991;28;20042;-73
2023/01/10 02:22:51;;;;;;;15.95;3.28;;;;;;;3.99;100.00;101193.47;5023121;28;20025;-73
2023/01/10 02:25:37;;;;;;;18.63;2.83;;;;;;;4.12;100.00;101200.38;5018012;28;20072;-73
2023/01/10 02:28:21;;;;;;;18.92;3.47;;;;;;;4.08;100.00;101186.91;5022859;28;20048;-73
2023/01/10 02:31:19;;;;;;;22.58;4.13;;;;;;;3.94;100.00;101213.53;5005671;28;20041;-73
2023/01/10 02:34:03;;;;;;;22.08;3.53;;;;;;;4.00;100.00;101218.22;4985706;28;20056;-73
2023/01/10 02:36:51;;;;;;;14.75;2.53;;;;;;;3.97;100.00;101215.03;5028845;28;20079;-73
2023/01/10 02:39:40;;;;;;;16.13;2.67;;;;;;;3.89;100.00;101207.88;5049008;23;20128;-73
2023/01/10 02:42:08;;;;;;;15.48;2.58;;;;;;;3.87;100.00;101213.09;5037046;28;20128;-73
2023/01/10 02:44:44;;;;;;;12.25;2.33;;;;;;;3.88;100.00;101211.34;5062931;28;20037;-73
2023/01/10 02:47:12;;;;;;;9.93;2.65;;;;;;;3.82;100.00;101212.56;5060838;28;20029;-73
2023/01/10 02:49:46;;;;;;;20.45;3.17;;;;;;;3.82;100.00;101219.44;5048032;28;20711;-73
2023/01/10 02:52:18;;;;;;;20.20;2.70;;;;;;;3.77;100.00;101214.63;5062723;28;20302;-73
2023/01/10 02:54:44;;;;;;;22.77;3.92;;;;;;;3.78;100.00;101215.44;5059262;28;20032;-73
2023/01/10 02:57:55;;;;;;;15.23;2.42;;;;;;;3.77;100.00;101212.06;5059280;28;20123;-73
2023/01/10 03:00:40;;;;;;;13.20;2.85;;;;;;;3.72;100.00;101216.69;5057653;28;20040;-73
2023/01/10 03:03:18;;;;;;;9.13;2.67;;;;;;;3.63;100.00;101219.84;5062742;28;20072;-73
2023/01/10 03:05:55;;;;;;;15.32;3.20;;;;;;;3.63;100.00;101217.28;5061679;28;21536;-73
2023/01/10 03:08:33;;;;;;;13.90;2.83;;;;;;;3.54;100.00;101223.00;5056617;28;20542;-73
2023/01/10 03:11:07;;;;;;;17.02;2.60;;;;;;;3.72;100.00;101233.81;5055979;28;20036;-72
2023/01/10 03:13:40;;;;;;;16.38;2.70;;;;;;;3.63;100.00;101227.53;5066355;28;20094;-73
2023/01/10 03:16:10;;;;;;;11.98;2.60;;;;;;;3.57;100.00;101236.44;5067184;28;20037;-73
2023/01/10 03:18:57;;;;;;;24.33;4.07;;;;;;;3.56;100.00;101237.41;5076855;28;20555;-73
2023/01/10 03:21:25;;;;;;;8.15;2.28;;;;;;;3.53;100.00;101242.72;5060572;28;20064;-73
2023/01/10 03:23:55;;;;;;;13.60;3.35;;;;;;;3.45;100.00;101239.84;5067173;28;20036;-73
2023/01/10 03:26:28;;;;;;;16.42;2.80;;;;;;;3.44;100.00;101243.31;5061877;28;20090;-72
2023/01/10 03:29:05;;;;;;;22.27;2.80;;;;;;;3.46;100.00;101244.03;5060155;28;20029;-73
2023/01/10 03:31:38;;;;;;;11.07;2.60;;;;;;;3.43;100.00;101236.53;5057578;28;20036;-73
2023/01/10 03:34:04;;;;;;;16.10;3.40;;;;;;;3.40;100.00;101249.56;5039994;28;20060;-73
2023/01/10 03:36:38;;;;;;;16.50;2.53;;;;;;;3.38;100.00;101252.22;5058651;28;20415;-73
2023/01/10 03:39:32;;;;;;;16.77;3.88;;;;;;;3.46;100.00;101261.97;5055006;28;20041;-73
2023/01/10 03:42:19;;;;;;;17.50;3.08;;;;;;;3.48;100.00;101267.81;5059261;28;20583;-73
2023/01/10 03:44:53;;;;;;;14.93;2.58;;;;;;;3.39;100.00;101269.25;5044854;28;20098;-73
2023/01/10 03:47:31;;;;;;;10.75;2.97;;;;;;;3.52;100.00;101276.97;5049919;28;20052;-73
2023/01/10 03:50:01;;;;;;;13.15;2.22;;;;;;;3.51;100.00;101286.41;5061472;28;20123;-73
2023/01/10 03:52:28;;;;;;;18.50;2.22;;;;;;;3.61;100.00;101290.94;5066862;28;20032;-73
2023/01/10 03:54:53;;;;;;;20.95;3.75;;;;;;;3.58;100.00;101306.50;5066830;28;20051;-73
2023/01/10 03:57:23;;;;;;;18.58;3.33;;;;;;;3.60;100.00;101300.38;5045868;28;20033;-72
2023/01/10 03:59:56;;;;;;;13.77;2.83;;;;;;;3.57;100.00;101305.69;5042807;28;20032;-72
2023/01/10 04:02:26;;;;;;;16.27;2.33;;;;;;;3.62;100.00;101319.06;5058681;28;20032;-73
2023/01/10 04:04:51;;;;;;;14.60;2.55;;;;;;;3.60;100.00;101310.63;5057784;28;20563;-71
2023/01/10 04:07:17;;;;;;;16.67;2.63;;;;;;;3.65;100.00;101311.16;5059959;28;20037;-73
2023/01/10 04:09:42;;;;;;;20.58;3.92;;;;;;;3.61;100.00;101306.31;5061484;28;20037;-73
2023/01/10 04:12:08;;;;;;;16.88;2.78;;;;;;;3.70;100.00;101306.56;5058735;28;20604;-73
2023/01/10 04:14:33;;;;;;;17.88;2.65;;;;;;;3.85;100.00;101315.00;5061059;28;20035;-73
2023/01/10 04:16:59;;;;;;;12.40;2.00;;;;;;;3.74;100.00;101317.44;5065283;28;20106;-73
2023/01/10 04:19:24;;;;;;;20.10;3.30;;;;;;;3.86;100.00;101313.25;5048558;28;20044;-74
2023/01/10 04:21:50;;;;;;;16.90;2.55;;;;;;;3.89;100.00;101313.06;5063956;28;20036;-73
2023/01/10 04:24:15;;;;;;;20.13;3.78;;;;;;;3.89;100.00;101311.31;5066297;28;20146;-72
2023/01/10 04:26:41;;;;;;;16.50;3.03;;;;;;;3.93;100.00;101311.94;5064230;28;20040;-73
2023/01/10 04:29:07;;;;;;;19.75;3.20;;;;;;;3.93;100.00;101311.13;5057302;28;20398;-73
2023/01/10 04:31:32;;;;;;;25.52;4.55;;;;;;;4.00;100.00;101307.25;5060800;28;20501;-72
2023/01/10 04:33:58;;;;;;;15.98;3.90;;;;;;;4.06;100.00;101310.22;5065906;28;20028;-73
2023/01/10 04:36:23;;;;;;;41.53;2.83;;;;;;;4.01;100.00;101321.69;5062467;28;20047;-72
2023/01/10 04:38:49;;;;;;;23.17;4.28;;;;;;;3.89;100.00;101318.19;5057852;28;20090;-73
2023/01/10 04:41:14;;;;;;;29.55;3.28;;;;;;;3.86;100.00;101318.38;5064111;28;20040;-73
2023/01/10 04:43:40;;;;;;;22.98;3.45;;;;;;;3.83;100.00;101318.59;5062934;28;20044;-73
2023/01/10 04:46:05;;;;;;;21.42;2.88;;;;;;;3.84;100.00;101325.38;5057832;28;20029;-73
2023/01/10 04:48:32;;;;;;;29.40;4.75;;;;;;;3.90;100.00;101317.28;5059114;28;20078;-73
2023/01/10 04:50:57;;;;;;;19.70;4.35;;;;;;;3.86;100.00;101318.38;5066798;28;20379;-73
2023/01/10 04:53:23;;;;;;;17.83;3.42;;;;;;;3.90;100.00;101327.56;5062795;28;20036;-73
2023/01/10 04:55:48;;;;;;;19.95;3.28;;;;;;;3.86;100.00;101333.78;5061079;28;20448;-73
2023/01/10 04:58:14;;;;;;;26.83;3.38;;;;;;;3.73;100.00;101327.78;5063920;28;20037;-72
2023/01/10 05:00:39;;;;;;;20.92;3.83;;;;;;;3.68;100.00;101333.22;5081323;28;20729;-73
2023/01/10 05:03:05;;;;;;;17.52;2.88;;;;;;;3.61;100.00;101335.34;5064590;28;20048;-73
2023/01/10 05:05:31;;;;;;;26.17;3.85;;;;;;;3.59;100.00;101338.94;5045508;28;20060;-72
2023/01/10 05:07:57;;;;;;;18.50;2.45;;;;;;;3.59;100.00;101347.44;5064007;28;20502;-73
2023/01/10 05:10:23;;;;;;;20.92;2.90;;;;;;;3.58;100.00;101344.97;5052886;28;20086;-73
2023/01/10 05:12:48;;;;;;;19.45;3.03;;;;;;;3.63;100.00;101360.91;5065023;28;20032;-73
2023/01/10 05:15:14;;;;;;;21.92;3.05;;;;;;;3.57;100.00;101362.13;5050034;28;20474;-73
2023/01/10 05:17:39;;;;;;;16.80;2.95;;;;;;;3.47;100.00;101349.06;5062755;28;20033;-73
2023/01/10 05:20:06;;;;;;;22.88;2.40;;;;;;;3.42;100.00;101356.22;5080311;28;20048;-73
2023/01/10 05:22:32;;;;;;;22.23;3.47;;;;;;;3.44;100.00;101358.69;5058661;28;20032;-73
2023/01/10 05:24:57;;;;;;;18.52;2.97;;;;;;;3.41;100.00;101375.09;5067662;28;20028;-73
2023/01/10 05:27:22;;;;;;;17.60;3.45;;;;;;;3.47;100.00;101371.31;5068288;28;20653;-73
2023/01/10 05:29:48;;;;;;;17.92;3.08;;;;;;;3.40;100.00;101382.88;5065420;28;20308;-73
2023/01/10 05:32:13;;;;;;;17.38;4.18;;;;;;;3.35;100.00;101384.88;5066956;28;20032;-73
2023/01/10 05:34:40;;;;;;;17.40;2.50;;;;;;;3.34;100.00;101383.25;5050433;28;20033;-72
2023/01/10 05:37:05;;;;;;;24.00;4.97;;;;;;;3.23;100.00;101381.34;5062508;28;20040;-72
2023/01/10 05:39:31;;;;;;;15.07;2.35;;;;;;;3.18;100.00;101380.81;5080272;28;20032;-73
2023/01/10 05:41:56;;;;;;;20.38;3.30;;;;;;;3.20;100.00;101364.44;5061326;28;20032;-73
2023/01/10 05:44:22;;;;;;;19.80;3.13;;;;;;;3.23;100.00;101365.97;5065682;28;20036;-73
2023/01/10 05:46:47;;;;;;;22.92;3.28;;;;;;;3.17;100.00;101377.41;5061803;28;20044;-72
2023/01/10 05:49:12;;;;;;;26.60;3.33;;;;;;;3.22;100.00;101379.69;5063692;28;20048;-73
2023/01/10 05:51:38;;;;;;;20.58;4.35;;;;;;;3.21;100.00;101389.13;5064062;28;20040;-72
2023/01/10 05:54:04;;;;;;;23.42;5.20;;;;;;;3.19;100.00;101400.41;5066879;28;20392;-72
2023/01/10 05:56:29;;;;;;;17.70;4.72;;;;;;;3.20;100.00;101404.59;5064685;28;20059;-72
2023/01/10 05:58:55;;;;;;;26.40;3.35;;;;;;;3.16;100.00;101418.53;5064312;28;20029;-73
2023/01/10 06:01:21;;;;;;;27.48;4.07;;;;;;;3.17;100.00;101418.44;5064811;28;20037;-73
2023/01/10 06:03:47;;;;;;;19.63;2.97;;;;;;;3.14;100.00;101423.72;5074445;28;20040;-72
2023/01/10 06:06:13;;;;;;;21.95;3.15;;;;;;;3.18;100.00;101439.75;5056156;28;20099;-73
2023/01/10 06:08:39;;;;;;;26.88;4.25;;;;;;;3.11;100.00;101436.75;5076812;28;20028;-73
2023/01/10 06:11:06;;;;;;;26.50;4.40;;;;;;;3.14;100.00;101420.34;5052971;28;20495;-73
2023/01/10 06:13:32;;;;;;;22.25;3.20;;;;;;;3.19;100.00;101421.72;5064175;28;20043;-73
2023/01/10 06:15:58;;;;;;;28.58;4.20;;;;;;;3.14;100.00;101436.53;5064557;28;20028;-73
2023/01/10 06:18:23;;;;;;;27.02;3.90;;;;;;;3.19;100.00;101431.16;5062030;28;20390;-73
2023/01/10 06:20:49;;;;;;;38.03;4.03;;;;;;;3.12;100.00;101443.50;5065487;28;20029;-73
2023/01/10 06:23:14;;;;;;;20.42;3.60;;;;;;;3.08;100.00;101436.91;5043638;28;20048;-73
2023/01/10 06:25:40;;;;;;;33.80;4.15;;;;;;;3.09;100.00;101434.28;5043010;28;20047;-72
2023/01/10 06:28:07;;;;;;;30.17;4.65;;;;;;;3.19;100.00;101447.34;5059875;28;20048;-72
2023/01/10 06:30:34;;;;;;;21.27;3.58;;;;;;;3.17;100.00;101449.19;5044931;28;20090;-73
2023/01/10 06:33:01;;;;;;;28.98;5.13;;;;;;;3.28;100.00;101449.38;5046056;28;20097;-73
2023/01/10 06:35:27;;;;;;;30.10;4.55;;;;;;;3.35;100.00;101443.84;5058384;28;20047;-73
2023/01/10 06:37:52;;;;;;;32.25;3.67;;;;;;;3.27;100.00;101446.88;5060044;28;20020;-73
2023/01/10 06:40:18;;;;;;;32.35;4.50;;;;;;;3.39;100.00;101455.56;5062641;28;20029;-72
2023/01/10 06:42:43;;;;;;;25.55;5.25;;;;;;;3.26;100.00;101456.31;5075896;28;20413;-73
2023/01/10 06:45:09;;;;;;;25.35;3.95;;;;;;;3.33;100.00;101455.94;5047243;28;20033;-73
2023/01/10 06:47:35;;;;;;;25.35;3.70;;;;;;;3.37;100.00;101463.38;5063042;28;20107;-73
2023/01/10 06:50:01;;;;;;;29.15;4.07;;;;;;;3.31;100.00;101471.41;5044899;28;20051;-73
2023/01/10 06:52:26;;;;;;;27.30;2.80;;;;;;;3.21;100.00;101468.59;5046291;28;20081;-73
2023/01/10 06:54:52;;;;;;;27.85;3.78;;;;;;;3.32;100.00;101470.50;5044489;28;20041;-73
2023/01/10 06:57:17;;;;;;;25.05;4.63;;;;;;;3.36;100.00;101474.53;5056337;28;20612;-73
2023/01/10 06:59:43;;;;;;;34.55;3.70;;;;;;;3.23;100.00;101483.88;5054221;28;20435;-73
2023/01/10 07:02:10;;;;;;;39.53;5.13;;;;;;;3.24;100.00;101482.94;5057595;28;20487;-72
2023/01/10 07:04:36;;;;;;;33.35;4.10;;;;;;;3.28;100.00;101485.25;5058535;28;20029;-73
2023/01/10 07:07:01;;;;;;;40.25;5.55;;;;;;;3.21;100.00;101491.66;5062977;28;20070;-73
2023/01/10 07:09:27;;;;;;;27.50;4.53;;;;;;;3.17;100.00;101492.75;5057864;28;20048;-72
2023/01/10 07:11:53;;;;;;;31.08;3.90;;;;;;;3.19;100.00;101495.25;5057373;28;20037;-72
2023/01/10 07:14:18;;;;;;;38.95;4.80;;;;;;;3.19;100.00;101496.06;5061433;28;20445;-73
2023/01/10 07:16:44;;;;;;;27.65;3.35;;;;;;;3.12;100.00;101507.56;5061050;28;20044;-73
2023/01/10 07:19:12;;;;;;;36.67;4.57;;;;;;;3.11;100.00;101495.69;5046432;28;20391;-73
2023/01/10 07:21:38;;;;;;;23.08;5.03;;;;;;;3.15;100.00;101509.97;5047331;28;20483;-72
2023/01/10 07:24:03;;;;;;;31.58;4.10;;;;;;;3.22;100.00;101508.69;5067408;28;22586;-73
2023/01/10 07:26:29;;;;;;;35.67;4.93;;;;;;;3.08;100.00;101516.38;5061540;28;20063;-72
2023/01/10 07:28:54;;;;;;;27.55;3.83;;;;;;;3.04;100.00;101512.34;5067940;28;20047;-73
2023/01/10 07:31:21;;;;;;;24.02;4.38;;;;;;;3.09;100.00;101520.59;5067929;28;20039;-73
2023/01/10 07:33:47;;;;;;;36.83;3.75;;;;;;;3.13;100.00;101519.50;5058753;28;20067;-73
2023/01/10 07:36:12;;;;;;;20.80;3.80;;;;;;;3.03;100.00;101536.28;5051558;28;20119;-73
2023/01/10 07:38:38;;;;;;;32.10;4.50;;;;;;;3.11;100.00;101536.69;5082565;28;20035;-73
2023/01/10 07:41:04;;;;;;;28.27;2.88;;;;;;;2.97;100.00;101544.34;5082356;28;20138;-73
2023/01/10 07:43:30;;;;;;;27.52;3.03;;;;;;;3.02;100.00;101542.34;5071151;28;20097;-73
2023/01/10 07:46:00;;;;;;;25.05;4.07;;;;;;;3.05;100.00;101554.97;5044627;28;20035;-73
2023/01/10 07:48:26;;;;;;;28.13;5.18;;;;;;;2.92;100.00;101560.81;5066045;28;20113;-73
2023/01/10 07:51:01;;;;;;;27.13;4.72;;;;;;;3.00;100.00;101557.00;5060104;28;20722;-73
2023/01/10 07:53:27;;;;;;;35.45;5.95;;;;;;;3.04;100.00;101553.34;5066120;28;20115;-73
2023/01/10 07:55:57;;;;;;;33.70;4.68;;;;;;;2.93;100.00;101554.75;5067209;28;20082;-72
2023/01/10 07:58:22;;;;;;;24.67;3.25;;;;;;;2.99;100.00;101565.56;5049890;28;20445;-73
2023/01/10 08:00:49;;;;;;;24.00;3.00;;;;;;;2.94;100.00;101573.53;5065075;28;20033;-73
2023/01/10 08:03:16;;;;;;;29.67;5.57;;;;;;;2.98;100.00;101582.69;5067269;28;20033;-73
2023/01/10 08:05:42;;;;;;;27.58;4.65;;;;;;;3.01;100.00;101582.50;5068637;28;20672;-73
2023/01/10 08:08:09;;;;;;;20.95;3.83;;;;;;;3.00;100.00;101578.31;5062984;28;20056;-72
2023/01/10 08:10:36;;;;;;;20.27;3.50;;;;;;;2.93;100.00;101585.50;5060863;28;20048;-73
2023/01/10 08:13:02;;;;;;;20.48;2.63;;;;;;;3.04;100.00;101590.03;5077560;28;20032;-72
2023/01/10 08:15:28;;;;;;;30.67;6.13;;;;;;;3.05;100.00;101589.13;5066351;28;20044;-71
2023/01/10 08:17:54;;;;;;;34.53;4.05;;;;;;;3.18;100.00;101591.78;5078582;28;20032;-73
2023/01/10 08:20:19;;;;;;;27.10;3.80;;;;;;;3.35;100.00;101587.44;5047808;28;20040;-73
2023/01/10 08:22:45;;;;;;;24.00;3.95;;;;;;;3.31;100.00;101587.63;5067363;28;20371;-73
2023/01/10 08:25:10;;;;;;;32.65;4.75;;;;;;;3.20;100.00;101587.44;5063510;28;20036;-73
2023/01/10 08:27:36;;;;;;;27.20;3.97;;;;;;;3.15;100.00;101598.84;5064307;28;20439;-73
2023/01/10 08:30:04;;;;;;;26.08;3.58;;;;;;;3.13;100.00;101598.94;5064550;28;20247;-72
2023/01/10 08:32:29;;;;;;;21.02;3.30;;;;;;;3.11;100.00;101586.22;5084038;28;20115;-73
2023/01/10 08:34:55;;;;;;;25.25;4.28;;;;;;;3.28;100.00;101590.34;5047625;28;20037;-73
2023/01/10 08:37:21;;;;;;;31.80;4.55;;;;;;;3.34;100.00;101601.19;5062952;28;20151;-73
2023/01/10 08:39:46;;;;;;;27.48;4.43;;;;;;;3.29;100.00;101604.81;5033977;23;20068;-75
2023/01/10 08:42:12;;;;;;;47.30;4.50;;;;;;;3.22;100.00;101600.97;4997531;28;20044;-75
2023/01/10 08:44:37;;;;;;;26.90;3.30;;;;;;;3.25;100.00;101602.53;5024005;28;20262;-74
2023/01/10 08:47:03;;;;;;;32.90;6.57;;;;;;;3.42;100.00;101604.09;5023778;28;20030;-75
2023/01/10 08:49:28;;;;;;;31.63;4.68;;;;;;;3.45;100.00;101598.81;5008442;28;20475;-75
2023/01/10 08:51:54;;;;;;;25.73;3.65;;;;;;;3.40;100.00;101601.63;5025115;28;20034;-75
2023/01/10 08:54:19;;;;;;;31.67;3.42;;;;;;;3.44;100.00;101600.53;5027727;28;20033;-75
2023/01/10 08:56:45;;;;;;;23.27;4.20;;;;;;;3.46;100.00;101597.88;5026407;28;20044;-75
2023/01/10 08:59:10;;;;;;;24.08;5.80;;;;;;;3.56;100.00;101610.97;5016013;28;20039;-75
2023/01/10 09:01:36;;;;;;;36.72;4.32;;;;;;;3.57;100.00;101600.63;5005011;28;20041;-75
2023/01/10 09:04:01;;;;;;;34.13;4.65;;;;;;;3.60;100.00;101604.75;5026762;28;20492;-74
2023/01/10 09:06:27;;;;;;;31.42;4.03;;;;;;;3.57;100.00;101607.50;5018001;28;20049;-75
2023/01/10 09:08:53;;;;;;;34.15;3.38;;;;;;;3.59;100.00;101605.69;5017343;28;20034;-75
2023/01/10 09:11:20;;;;;;;17.48;3.63;;;;;;;3.67;100.00;101600.91;5021983;28;20092;-74
2023/01/10 09:13:49;;;;;;;29.45;4.60;;;;;;;3.77;100.00;101608.88;5012766;28;20029;-74
2023/01/10 09:16:16;;;;;;;26.50;3.33;;;;;;;3.96;100.00;101608.63;5042492;28;20048;-74
2023/01/10 09:18:43;;;;;;;35.33;3.85;;;;;;;3.95;100.00;101606.97;5026180;28;20445;-75
2023/01/10 09:21:11;;;;;;;25.05;3.67;;;;;;;4.08;100.00;101607.84;5001009;28;20037;-75
2023/01/10 09:23:38;;;;;;;23.30;5.38;;;;;;;4.19;100.00;101604.63;5024964;28;20478;-74
2023/01/10 09:26:05;;;;;;;33.10;4.57;;;;;;;4.21;100.00;101607.94;4980949;28;20067;-74
2023/01/10 09:28:32;;;;;;;37.65;4.70;;;;;;;4.27;100.00;101603.22;5008115;28;20030;-73
2023/01/10 09:30:59;;;;;;;26.58;4.18;;;;;;;4.27;100.00;101603.22;5022170;28;20064;-75
2023/01/10 09:33:35;;;;;;;24.20;3.80;;;;;;;4.32;100.00;101613.22;5017338;28;20037;-75
2023/01/10 09:36:04;;;;;;;30.23;4.10;;;;;;;4.44;100.00;101603.91;5016276;28;20125;-75
2023/01/10 09:38:55;;;;;;;32.20;5.70;;;;;;;4.53;100.00;101611.06;5024813;28;20074;-74
2023/01/10 09:42:10;;;;;;;34.17;4.07;;;;;;;4.46;99.62;101608.06;5021124;28;20099;-75
2023/01/10 09:44:48;;;;;;;31.23;5.65;;;;;;;4.49;99.23;101610.41;5005095;28;20095;-75
2023/01/10 09:47:32;;;;;;;36.50;5.55;;;;;;;4.48;100.00;101602.81;4998390;28;20030;-74
2023/01/10 09:50:30;;;;;;;27.63;4.28;;;;;;;4.48;99.98;101605.38;5039091;28;20037;-76
2023/01/10 09:53:03;;;;;;;38.60;4.85;;;;;;;4.57;99.96;101609.13;4983692;28;20049;-75
2023/01/10 09:55:36;;;;;;;27.05;5.18;;;;;;;4.60;99.18;101620.03;5004704;28;20075;-75
2023/01/10 09:58:15;;;;;;;33.80;4.55;;;;;;;4.76;98.49;101608.78;5028126;28;20099;-75
2023/01/10 10:00:51;;;;;;;25.92;3.45;;;;;;;4.79;98.41;101609.41;5010459;28;20037;-75
2023/01/10 10:03:42;;;;;;;35.35;4.20;;;;;;;4.77;99.02;101611.25;5003868;28;20119;-74
2023/01/10 10:06:14;;;;;;;23.00;4.60;;;;;;;4.92;97.83;101608.63;5006204;28;20434;-74
2023/01/10 10:08:42;;;;;;;28.33;6.03;;;;;;;4.91;97.66;101607.78;5009083;28;20029;-74
2023/01/10 10:11:23;;;;;;;20.05;5.57;;;;;;;4.85;98.36;101611.56;5022751;28;20053;-75
2023/01/10 10:14:17;;;;;;;34.13;4.53;;;;;;;5.06;97.79;101606.78;5041245;28;20044;-75
2023/01/10 10:17:01;;;;;;;24.35;4.22;;;;;;;5.17;96.65;101606.06;5029503;28;20036;-75
2023/01/10 10:23:37;;;;;;;27.05;5.03;;;;;;;5.28;95.75;101600.22;5027275;28;20117;-75
2023/01/10 10:30:51;;;;;;;31.27;5.18;;;;;;;5.36;94.86;101607.44;4943776;28;20413;-75
2023/01/10 10:50:22;;;;;;;23.85;3.80;;;;;;;5.64;92.79;101570.38;4907640;29;20645;-75
2023/01/10 10:56:48;;;;;;;22.98;4.45;;;;;;;5.80;92.61;101570.13;4940423;28;20130;-75
2023/01/10 10:59:19;;;;;;;29.73;3.90;;;;;;;5.91;92.75;101566.81;4930471;28;20040;-74
2023/01/10 11:01:50;;;;;;;24.35;3.50;;;;;;;5.85;92.70;101560.34;4933532;29;20425;-74
2023/01/10 11:04:20;;;;;;;20.67;2.90;;;;;;;5.91;91.54;101556.53;4931694;29;20619;-75
2023/01/10 11:06:50;;;;;;;33.92;3.42;;;;;;;5.94;92.11;101552.00;5031741;28;20049;-74
2023/01/10 11:09:38;;;;;;;22.05;3.10;;;;;;;5.98;90.68;101548.31;5030587;28;20029;-75
2023/01/10 11:12:16;;;;;;;25.27;2.88;;;;;;;6.01;91.33;101542.94;5040317;28;20529;-75
2023/01/10 11:15:00;;;;;;;26.10;4.05;;;;;;;5.94;91.92;101535.72;4998787;28;20029;-75
2023/01/10 11:18:15;;;;;;;22.85;4.18;;;;;;;6.00;92.08;101536.13;5022171;28;20054;-75
2023/01/10 11:21:16;;;;;;;24.13;3.28;;;;;;;6.03;90.38;101532.53;5005247;28;20557;-75
2023/01/10 11:23:55;;;;;;;25.50;3.33;;;;;;;6.13;90.31;101530.94;4956476;28;20188;-74
2023/01/10 11:26:24;;;;;;;24.17;3.75;;;;;;;6.11;90.51;101540.53;5025780;28;20831;-74
2023/01/10 11:29:30;;;;;;;23.10;4.00;;;;;;;6.19;90.92;101540.00;5040534;28;20055;-75
2023/01/10 11:32:19;;;;;;;23.23;3.10;;;;;;;6.29;89.63;101541.00;5035172;28;20153;-74
2023/01/10 11:35:00;;;;;;;26.83;3.28;;;;;;;6.39;88.51;101534.22;4966005;28;21486;-75
2023/01/10 11:37:35;;;;;;;30.65;4.10;;;;;;;6.36;89.25;101536.22;4997667;28;20053;-75
2023/01/10 11:40:29;;;;;;;19.35;2.70;;;;;;;6.43;89.50;101529.69;5024704;28;20549;-74
2023/01/10 11:43:25;;;;;;;16.13;2.90;;;;;;;6.41;89.18;101523.81;5028148;28;20029;-75
2023/01/10 11:46:25;;;;;;;27.63;3.50;;;;;;;6.55;89.27;101518.47;5026955;28;21874;-74
2023/01/10 11:49:03;;;;;;;31.75;5.05;;;;;;;6.71;88.43;101522.53;5027752;28;20487;-75
2023/01/10 11:51:37;;;;;;;25.08;3.97;;;;;;;6.66;88.10;101524.59;5010275;28;20041;-74
2023/01/10 11:54:15;;;;;;;22.80;4.47;;;;;;;6.74;88.35;101523.13;5009156;28;20037;-74
2023/01/10 11:56:42;;;;;;;27.58;5.38;;;;;;;6.70;87.44;101508.78;5043083;28;20045;-75
2023/01/10 11:59:17;;;;;;;20.17;3.20;;;;;;;6.76;88.06;101512.66;5044354;28;20030;-74
2023/01/10 12:01:52;;;;;;;27.65;3.83;;;;;;;6.80;86.13;101504.63;5024526;28;20041;-74
2023/01/10 12:04:23;;;;;;;25.48;3.42;;;;;;;6.78;86.52;101509.06;5028584;28;20040;-75
2023/01/10 12:06:51;;;;;;;26.60;4.07;;;;;;;6.90;86.33;101503.94;5011549;28;20095;-74
2023/01/10 12:09:38;;;;;;;30.85;3.38;;;;;;;6.92;85.91;101500.28;5023981;28;20056;-74
2023/01/10 12:12:32;;;;;;;21.67;3.53;;;;;;;6.87;86.16;101499.00;5041168;28;20103;-74
2023/01/10 12:15:04;;;;;;;20.58;2.83;;;;;;;6.90;85.54;101491.84;5027790;28;20047;-75
2023/01/10 12:17:32;;;;;;;14.13;2.47;;;;;;;6.87;85.15;101492.06;5021291;28;20037;-75
2023/01/10 12:20:00;;;;;;;24.00;3.70;;;;;;;6.88;85.78;101485.19;5000588;28;20053;-75
2023/01/10 12:22:55;;;;;;;30.20;3.00;;;;;;;6.86;86.38;101485.28;5023689;28;20088;-74
2023/01/10 12:25:27;;;;;;;23.15;2.83;;;;;;;6.88;87.44;101482.59;5004942;28;20048;-75
2023/01/10 12:27:55;;;;;;;22.30;2.20;;;;;;;7.01;86.19;101473.81;5039940;28;20051;-74
2023/01/10 12:30:41;;;;;;;27.17;3.65;;;;;;;7.04;86.42;101477.91;5025473;28;20152;-75
2023/01/10 12:33:14;;;;;;;15.60;2.80;;;;;;;7.13;84.73;101463.50;5023268;28;20084;-75
2023/01/10 12:35:47;;;;;;;27.70;3.35;;;;;;;7.19;84.69;101474.16;5008132;28;20064;-75
2023/01/10 12:44:25;;;;;;;17.27;2.28;;;;;;;7.27;83.60;101467.59;4966418;28;20053;-72
2023/01/10 12:46:57;;;;;;;26.33;3.15;;;;;;;7.28;83.97;101461.50;5042421;28;20128;-73
2023/01/10 12:49:34;;;;;;;21.00;2.75;;;;;;;7.29;84.97;101457.97;5026129;28;20037;-73
2023/01/10 12:52:11;;;;;;;25.83;2.75;;;;;;;7.30;84.00;101452.69;5037152;28;20040;-72
2023/01/10 12:54:37;;;;;;;29.15;3.65;;;;;;;7.36;83.47;101456.56;5018302;28;20115;-73
2023/01/10 12:57:16;;;;;;;31.55;7.10;;;;;;;7.37;83.34;101453.06;5007905;28;20104;-73
2023/01/10 12:59:43;;;;;;;52.58;13.43;;;;;;;7.36;84.19;101439.31;5021693;28;20491;-72
2023/01/10 13:02:18;;;;;;;27.50;5.38;;;;;;;7.32;84.84;101443.09;5028985;28;20039;-73
2023/01/10 13:04:52;;;;;;;24.73;3.35;;;;;;;7.25;84.56;101441.91;5007404;28;21723;-74
2023/01/10 13:07:19;;;;;;;23.00;2.85;;;;;;;7.30;84.76;101424.31;5038704;28;20396;-72
2023/01/10 13:09:46;;;;;;;18.15;3.47;;;;;;;7.31;84.03;101430.28;5001686;28;20049;-72
2023/01/10 13:12:32;;;;;;;27.38;2.92;;;;;;;7.37;83.49;101425.50;5043750;28;20087;-72
2023/01/10 13:15:13;;;;;;;16.88;2.13;;;;;;;7.34;82.96;101425.72;5042598;28;20064;-73
2023/01/10 13:17:45;;;;;;;32.10;3.88;;;;;;;7.35;83.71;101414.47;5018880;28;20052;-73